createdAt,value
2022-10-06T00:01:14.330Z,0.40
2022-10-06T00:03:41.885Z,0.50
2022-10-06T00:06:11.793Z,0.50
2022-10-06T00:08:41.017Z,0.52
2022-10-06T00:11:09.455Z,0.80
2022-10-06T00:13:37.927Z,0.40
2022-10-06T00:16:21.608Z,0.50
2022-10-06T00:18:48.920Z,0.50
2022-10-06T00:21:16.210Z,0.43
2022-10-06T00:23:43.424Z,0.70
2022-10-06T00:26:16.746Z,0.50
2022-10-06T00:28:47.387Z,0.50
2022-10-06T00:31:15.384Z,0.50
2022-10-06T00:33:42.318Z,0.50
2022-10-06T00:36:09.253Z,0.50
2022-10-06T00:38:36.271Z,0.30
2022-10-06T00:41:03.275Z,0.50
2022-10-06T00:43:45.104Z,0.50
2022-10-06T00:46:29.040Z,0.40
2022-10-06T00:49:06.368Z,0.32
2022-10-06T00:51:35.609Z,0.45
2022-10-06T00:54:03.787Z,0.40
2022-10-06T00:56:31.407Z,0.40
2022-10-06T00:58:58.217Z,0.80
2022-10-06T01:01:26.881Z,0.50
2022-10-06T01:04:02.895Z,0.60
2022-10-06T01:06:29.706Z,0.40
2022-10-06T01:08:56.561Z,0.35
2022-10-06T01:11:23.488Z,0.43
2022-10-06T01:13:50.439Z,0.50
2022-10-06T01:16:24.422Z,0.40
2022-10-06T01:18:55.666Z,0.30
2022-10-06T01:21:44.577Z,0.50
2022-10-06T01:24:11.428Z,0.55
2022-10-06T01:26:43.729Z,0.40
2022-10-06T01:29:10.730Z,0.35
2022-10-06T01:31:38.223Z,0.30
2022-10-06T01:34:05.184Z,0.40
2022-10-06T01:36:32.028Z,0.30
2022-10-06T01:38:58.860Z,0.50
2022-10-06T01:41:27.694Z,0.40
2022-10-06T01:43:54.537Z,0.50
2022-10-06T01:46:21.661Z,0.40
2022-10-06T01:48:48.631Z,0.43
2022-10-06T01:51:16.455Z,0.50
2022-10-06T01:53:43.510Z,0.32
2022-10-06T01:56:10.737Z,0.43
2022-10-06T01:58:37.555Z,0.45
2022-10-06T02:01:07.219Z,0.40
2022-10-06T02:03:36.597Z,0.40
2022-10-06T02:06:04.029Z,0.60
2022-10-06T02:08:31.514Z,0.40
2022-10-06T02:10:58.627Z,0.30
2022-10-06T02:13:28.397Z,0.60
2022-10-06T02:15:58.448Z,0.75
2022-10-06T02:18:26.360Z,0.40
2022-10-06T02:20:53.674Z,0.40
2022-10-06T02:23:20.479Z,0.40
2022-10-06T02:25:47.266Z,0.50
2022-10-06T02:28:14.301Z,0.45
2022-10-06T02:30:41.151Z,0.35
2022-10-06T02:33:08.182Z,0.25
2022-10-06T02:35:35.074Z,0.40
2022-10-06T02:38:01.884Z,0.30
2022-10-06T02:40:28.790Z,0.40
2022-10-06T02:42:55.571Z,0.65
2022-10-06T02:45:22.430Z,0.30
2022-10-06T02:47:49.749Z,0.40
2022-10-06T02:50:16.634Z,0.40
2022-10-06T02:52:43.471Z,0.30
2022-10-06T02:55:10.678Z,0.50
2022-10-06T02:57:37.573Z,0.65
2022-10-06T03:00:07.433Z,0.70
2022-10-06T03:02:34.781Z,0.50
2022-10-06T03:05:01.719Z,0.40
2022-10-06T03:07:28.626Z,0.30
2022-10-06T03:09:55.466Z,0.55
2022-10-06T03:12:23.067Z,0.47
2022-10-06T03:14:49.869Z,0.63
2022-10-06T03:17:16.711Z,0.77
2022-10-06T03:19:43.526Z,0.60
2022-10-06T03:22:10.613Z,0.45
2022-10-06T03:24:37.394Z,0.50
2022-10-06T03:27:04.291Z,0.73
2022-10-06T03:29:31.155Z,0.60
2022-10-06T03:31:58.784Z,1.00
2022-10-06T03:34:25.647Z,0.68
2022-10-06T03:36:52.457Z,0.60
2022-10-06T03:39:22.604Z,0.50
2022-10-06T03:41:49.476Z,0.50
2022-10-06T03:44:16.299Z,0.40
2022-10-06T03:46:43.176Z,0.55
2022-10-06T03:49:10.005Z,0.60
2022-10-06T03:51:42.147Z,0.57
2022-10-06T03:54:12.477Z,0.47
2022-10-06T03:56:41.534Z,0.50
2022-10-06T03:59:16.381Z,0.60
2022-10-06T04:01:47.134Z,0.52
2022-10-06T04:04:14.386Z,0.60
2022-10-06T04:06:44.183Z,0.50
2022-10-06T04:09:15.525Z,0.60
2022-10-06T04:11:44.805Z,0.40
2022-10-06T04:14:15.372Z,0.98
2022-10-06T04:16:51.138Z,0.60
2022-10-06T04:19:18.702Z,0.70
2022-10-06T04:21:49.813Z,0.65
2022-10-06T04:24:19.280Z,0.70
2022-10-06T04:26:52.275Z,0.50
2022-10-06T04:29:19.188Z,0.65
2022-10-06T04:31:46.178Z,0.60
2022-10-06T04:34:13.519Z,0.50
2022-10-06T04:36:42.940Z,0.52
2022-10-06T04:39:13.397Z,0.52
2022-10-06T04:41:42.642Z,0.50
2022-10-06T04:44:10.293Z,0.40
2022-10-06T04:46:43.266Z,0.60
2022-10-06T04:49:20.049Z,0.57
2022-10-06T04:51:49.665Z,0.60
2022-10-06T04:54:17.236Z,0.55
2022-10-06T04:56:44.039Z,0.50
2022-10-06T04:59:10.934Z,0.55
2022-10-06T05:01:38.181Z,0.47
2022-10-06T05:04:06.394Z,0.63
2022-10-06T05:06:41.922Z,0.70
2022-10-06T05:09:13.013Z,0.50
2022-10-06T05:11:40.037Z,1.05
2022-10-06T05:14:07.240Z,0.80
2022-10-06T05:16:34.421Z,0.60
2022-10-06T05:19:01.249Z,0.57
2022-10-06T05:21:32.268Z,0.70
2022-10-06T05:24:00.167Z,0.77
2022-10-06T05:26:31.401Z,0.63
2022-10-06T05:28:58.743Z,0.55
2022-10-06T05:31:41.054Z,1.10
2022-10-06T05:34:08.459Z,0.80
2022-10-06T05:36:35.992Z,0.70
2022-10-06T05:39:07.211Z,0.70
2022-10-06T05:41:34.962Z,0.70
2022-10-06T05:44:01.872Z,0.60
2022-10-06T05:46:32.152Z,0.55
2022-10-06T05:49:03.181Z,0.60
2022-10-06T05:51:34.366Z,0.60
2022-10-06T05:54:02.093Z,0.40
2022-10-06T05:56:36.211Z,1.98
2022-10-06T05:59:04.610Z,1.45
2022-10-06T06:01:40.647Z,0.70
2022-10-06T06:04:11.120Z,1.35
2022-10-06T06:06:48.819Z,1.98
2022-10-06T06:09:19.534Z,1.85
2022-10-06T06:11:50.184Z,1.95
2022-10-06T06:14:40.212Z,2.20
2022-10-06T06:17:07.501Z,2.05
2022-10-06T06:19:34.307Z,1.50
2022-10-06T06:22:01.085Z,1.38
2022-10-06T06:24:27.865Z,0.80
2022-10-06T06:26:54.736Z,1.35
2022-10-06T06:29:23.675Z,0.80
2022-10-06T06:31:51.090Z,0.88
2022-10-06T06:34:18.049Z,0.90
2022-10-06T06:36:47.409Z,0.63
2022-10-06T06:39:15.932Z,0.65
2022-10-06T06:41:46.032Z,0.85
2022-10-06T06:44:13.920Z,0.70
2022-10-06T06:46:49.077Z,0.45
2022-10-06T06:49:17.266Z,0.60
2022-10-06T06:51:49.733Z,0.45
2022-10-06T06:54:18.145Z,0.65
2022-10-06T06:56:45.843Z,0.60
2022-10-06T06:59:13.654Z,0.60
2022-10-06T07:01:47.030Z,0.65
2022-10-06T07:04:16.706Z,0.50
2022-10-06T07:06:53.405Z,0.50
2022-10-06T07:09:20.840Z,0.70
2022-10-06T07:11:47.716Z,0.40
2022-10-06T07:14:14.517Z,0.52
2022-10-06T07:17:00.052Z,0.70
2022-10-06T07:19:45.650Z,0.38
2022-10-06T07:22:37.804Z,0.70
2022-10-06T07:25:26.241Z,0.52
2022-10-06T07:27:54.651Z,0.50
2022-10-06T07:30:28.419Z,0.47
2022-10-06T07:32:55.891Z,0.60
2022-10-06T07:35:27.512Z,0.73
2022-10-06T07:37:54.436Z,0.60
2022-10-06T07:40:21.361Z,0.70
2022-10-06T07:42:48.432Z,0.60
2022-10-06T07:45:39.307Z,0.88
2022-10-06T07:50:43.767Z,0.57
2022-10-06T07:53:10.637Z,0.50
2022-10-06T07:55:44.513Z,0.90
2022-10-06T07:58:19.011Z,1.05
2022-10-06T08:00:48.671Z,0.88
2022-10-06T08:03:18.057Z,0.70
2022-10-06T08:05:57.670Z,0.95
2022-10-06T08:08:25.046Z,0.95
2022-10-06T08:11:00.231Z,1.23
2022-10-06T08:13:28.256Z,0.60
2022-10-06T08:15:56.561Z,2.35
2022-10-06T08:18:45.402Z,2.60
2022-10-06T08:21:22.074Z,1.73
2022-10-06T08:23:51.211Z,0.90
2022-10-06T08:26:20.677Z,0.73
2022-10-06T08:28:54.391Z,1.70
2022-10-06T08:31:23.329Z,1.83
2022-10-06T08:33:56.142Z,1.52
2022-10-06T08:36:31.027Z,2.17
2022-10-06T08:38:58.628Z,1.00
2022-10-06T08:41:50.758Z,1.20
2022-10-06T08:44:42.922Z,1.08
2022-10-06T08:47:18.545Z,0.90
2022-10-06T08:49:48.459Z,0.90
2022-10-06T08:52:50.283Z,0.80
2022-10-06T08:55:48.747Z,1.00
2022-10-06T08:58:58.375Z,0.77
2022-10-06T09:01:39.011Z,0.80
2022-10-06T09:04:07.627Z,0.50
2022-10-06T09:07:21.220Z,0.60
2022-10-06T09:10:05.798Z,0.55
2022-10-06T09:13:14.826Z,0.70
2022-10-06T09:18:56.121Z,0.43
2022-10-06T09:21:30.291Z,0.70
2022-10-06T09:24:07.615Z,0.70
2022-10-06T09:26:34.665Z,0.50
2022-10-06T09:29:04.508Z,0.65
2022-10-06T09:31:42.203Z,0.85
2022-10-06T09:34:09.012Z,0.93
2022-10-06T09:37:01.732Z,0.50
2022-10-06T09:39:41.442Z,0.68
2022-10-06T09:42:25.658Z,0.63
2022-10-06T09:44:58.650Z,0.45
2022-10-06T09:47:35.265Z,0.65
2022-10-06T09:50:27.796Z,0.50
2022-10-06T09:53:00.822Z,0.65
2022-10-06T09:55:36.906Z,0.80
2022-10-06T09:58:34.624Z,0.68
2022-10-06T10:01:06.841Z,0.40
2022-10-06T10:04:15.636Z,0.50
2022-10-06T10:06:40.517Z,0.70
2022-10-06T10:09:29.839Z,0.70
2022-10-06T10:12:29.879Z,0.40
2022-10-06T10:15:04.971Z,0.50
2022-10-06T10:18:05.205Z,0.70
2022-10-06T10:23:36.250Z,0.65
2022-10-06T10:26:38.947Z,0.70
2022-10-06T10:29:32.965Z,0.60
2022-10-06T10:32:19.680Z,0.88
2022-10-06T10:35:30.163Z,0.85
2022-10-06T10:38:13.699Z,0.70
2022-10-06T10:40:51.448Z,0.70
2022-10-06T10:43:52.516Z,0.90
2022-10-06T10:46:41.375Z,0.60
2022-10-06T10:49:29.868Z,0.80
2022-10-06T10:52:11.121Z,0.68
2022-10-06T10:54:48.121Z,0.65
2022-10-06T10:57:22.337Z,0.50
2022-10-06T11:00:04.672Z,0.77
2022-10-06T11:02:33.211Z,0.90
2022-10-06T11:05:15.025Z,0.60
2022-10-06T11:08:11.063Z,0.93
2022-10-06T11:10:51.574Z,0.90
2022-10-06T11:13:45.880Z,0.98
2022-10-06T11:16:21.892Z,0.90
2022-10-06T11:19:05.454Z,0.93
2022-10-06T11:21:47.487Z,0.90
2022-10-06T11:24:38.126Z,0.90
2022-10-06T11:28:00.841Z,0.80
2022-10-06T11:30:30.490Z,0.80
2022-10-06T11:33:11.462Z,1.20
2022-10-06T11:35:42.954Z,1.10
2022-10-06T11:38:38.027Z,0.85
2022-10-06T11:41:17.434Z,0.90
2022-10-06T11:44:19.233Z,0.77
2022-10-06T11:46:57.042Z,1.02
2022-10-06T11:49:29.507Z,0.98
2022-10-06T11:52:00.115Z,0.95
2022-10-06T11:54:43.601Z,0.80
2022-10-06T11:58:23.513Z,1.13
2022-10-06T12:00:54.618Z,1.08
2022-10-06T12:03:33.269Z,0.85
2022-10-06T12:06:00.150Z,0.80
2022-10-06T12:08:41.558Z,0.82
2022-10-06T12:11:44.553Z,0.98
2022-10-06T12:18:00.806Z,0.87
2022-10-06T12:21:06.409Z,0.95
2022-10-06T12:24:34.136Z,1.00
2022-10-06T12:27:48.726Z,1.02
2022-10-06T12:31:22.286Z,1.00
2022-10-06T12:33:50.485Z,1.00
2022-10-06T12:36:32.082Z,0.77
2022-10-06T12:39:07.402Z,1.00
2022-10-06T12:42:31.222Z,1.05
2022-10-06T12:44:58.374Z,1.02
2022-10-06T12:47:52.435Z,1.20
2022-10-06T12:50:27.195Z,0.80
2022-10-06T12:53:08.704Z,0.77
2022-10-06T12:55:49.025Z,0.98
2022-10-06T12:58:28.517Z,0.85
2022-10-06T13:01:02.877Z,0.68
2022-10-06T13:03:30.564Z,0.75
2022-10-06T13:06:08.241Z,0.90
2022-10-06T13:08:38.343Z,0.90
2022-10-06T13:11:21.256Z,1.02
2022-10-06T13:13:52.186Z,0.70
2022-10-06T13:16:48.208Z,1.67
2022-10-06T13:19:21.412Z,1.42
2022-10-06T13:21:48.289Z,1.00
2022-10-06T13:24:21.425Z,1.10
2022-10-06T13:26:48.739Z,0.90
2022-10-06T13:29:21.424Z,0.98
2022-10-06T13:31:53.211Z,1.05
2022-10-06T13:34:34.828Z,0.93
2022-10-06T13:37:02.368Z,0.82
2022-10-06T13:39:31.862Z,1.08
2022-10-06T13:42:03.687Z,1.10
2022-10-06T13:44:35.650Z,0.85
2022-10-06T13:47:17.149Z,0.90
2022-10-06T13:50:03.130Z,0.70
2022-10-06T13:52:46.528Z,1.08
2022-10-06T13:55:22.749Z,0.80
2022-10-06T13:58:09.958Z,0.80
2022-10-06T14:00:50.992Z,0.90
2022-10-06T14:03:28.537Z,0.95
2022-10-06T14:06:21.922Z,0.95
2022-10-06T14:08:57.634Z,1.08
2022-10-06T14:11:28.998Z,0.80
2022-10-06T14:14:06.070Z,0.82
2022-10-06T14:16:33.422Z,0.60
2022-10-06T14:19:05.736Z,0.88
2022-10-06T14:21:39.313Z,0.88
2022-10-06T14:24:28.383Z,0.70
2022-10-06T14:27:02.644Z,0.90
2022-10-06T14:29:29.506Z,0.60
2022-10-06T14:32:07.568Z,0.52
2022-10-06T14:34:35.634Z,0.73
2022-10-06T14:37:02.450Z,0.88
2022-10-06T14:39:29.233Z,0.68
2022-10-06T14:41:56.177Z,1.42
2022-10-06T14:44:23.018Z,0.90
2022-10-06T14:46:50.244Z,0.73
2022-10-06T14:49:17.557Z,0.88
2022-10-06T14:51:45.652Z,0.65
2022-10-06T14:54:13.636Z,0.73
2022-10-06T14:56:41.906Z,1.08
2022-10-06T14:59:16.668Z,0.85
2022-10-06T15:01:44.104Z,0.75
2022-10-06T15:04:14.619Z,0.70
2022-10-06T15:07:01.356Z,0.60
2022-10-06T15:09:31.071Z,0.77
2022-10-06T15:11:59.842Z,0.55
2022-10-06T15:14:28.465Z,1.00
2022-10-06T15:16:59.019Z,0.80
2022-10-06T15:19:27.060Z,0.70
2022-10-06T15:21:54.451Z,0.93
2022-10-06T15:24:21.485Z,1.10
2022-10-06T15:27:07.114Z,0.70
2022-10-06T15:29:37.427Z,0.70
2022-10-06T15:32:06.524Z,1.33
2022-10-06T15:34:34.663Z,5.53
2022-10-06T15:37:01.842Z,5.03
2022-10-06T15:39:35.868Z,3.70
2022-10-06T15:42:03.287Z,2.03
2022-10-06T15:44:34.614Z,1.75
2022-10-06T15:47:04.991Z,1.92
2022-10-06T15:52:03.261Z,0.93
2022-10-06T15:54:37.428Z,1.00
2022-10-06T15:57:08.583Z,0.98
2022-10-06T15:59:36.662Z,0.80
2022-10-06T16:02:09.753Z,0.70
2022-10-06T16:04:39.198Z,0.65
2022-10-06T16:07:09.180Z,1.10
2022-10-06T16:09:43.329Z,0.73
2022-10-06T16:12:13.109Z,0.65
2022-10-06T16:14:39.939Z,0.50
2022-10-06T16:17:07.701Z,1.00
2022-10-06T16:19:36.970Z,0.73
2022-10-06T16:22:07.494Z,0.85
2022-10-06T16:24:34.978Z,1.23
2022-10-06T16:27:02.265Z,0.70
2022-10-06T16:29:29.225Z,0.82
2022-10-06T16:31:56.264Z,1.05
2022-10-06T16:34:23.535Z,1.10
2022-10-06T16:36:50.367Z,1.17
2022-10-06T16:39:21.281Z,1.17
2022-10-06T16:41:49.202Z,1.05
2022-10-06T16:44:16.617Z,1.10
2022-10-06T16:46:43.973Z,1.20
2022-10-06T16:49:11.280Z,0.95
2022-10-06T16:51:45.687Z,1.05
2022-10-06T16:54:15.150Z,1.50
2022-10-06T16:56:48.495Z,1.55
2022-10-06T16:59:18.889Z,1.38
2022-10-06T17:01:46.608Z,1.13
2022-10-06T17:04:14.600Z,1.23
2022-10-06T17:06:48.462Z,1.80
2022-10-06T17:09:21.318Z,1.42
2022-10-06T17:12:09.608Z,1.40
2022-10-06T17:14:36.454Z,1.75
2022-10-06T17:17:03.650Z,1.70
2022-10-06T17:19:30.888Z,1.90
2022-10-06T17:21:59.760Z,1.63
2022-10-06T17:24:29.092Z,2.33
2022-10-06T17:26:57.263Z,2.10
2022-10-06T17:29:25.821Z,2.00
2022-10-06T17:31:56.206Z,2.13
2022-10-06T17:34:26.565Z,1.83
2022-10-06T17:36:54.773Z,2.30
2022-10-06T17:39:24.481Z,2.20
2022-10-06T17:41:53.531Z,2.08
2022-10-06T17:44:25.719Z,2.38
2022-10-06T17:46:56.225Z,2.58
2022-10-06T17:49:24.967Z,2.55
2022-10-06T17:51:54.479Z,2.78
2022-10-06T17:54:24.234Z,2.88
2022-10-06T17:56:54.785Z,2.92
2022-10-06T17:59:30.728Z,2.35
2022-10-06T18:02:01.342Z,2.60
2022-10-06T18:04:29.097Z,2.58
2022-10-06T18:06:56.901Z,2.70
2022-10-06T18:09:24.168Z,2.58
2022-10-06T18:11:56.205Z,2.45
2022-10-06T18:14:27.018Z,2.63
2022-10-06T18:17:00.745Z,2.42
2022-10-06T18:19:35.660Z,2.38
2022-10-06T18:22:12.983Z,2.83
2022-10-06T18:24:40.223Z,3.13
2022-10-06T18:27:08.091Z,2.20
2022-10-06T18:29:38.450Z,2.95
2022-10-06T18:33:19.348Z,2.22
2022-10-06T18:37:42.679Z,2.80
2022-10-06T18:40:11.123Z,2.20
2022-10-06T18:42:39.208Z,2.08
2022-10-06T18:45:27.097Z,2.50
2022-10-06T18:48:12.410Z,1.88
2022-10-06T18:50:39.526Z,2.00
2022-10-06T18:53:06.343Z,2.45
2022-10-06T18:55:34.334Z,2.10
2022-10-06T18:58:01.985Z,2.50
2022-10-06T19:00:28.804Z,2.53
2022-10-06T19:02:56.751Z,2.15
2022-10-06T19:05:24.101Z,1.90
2022-10-06T19:07:53.864Z,2.17
2022-10-06T19:10:21.143Z,2.10
2022-10-06T19:12:48.437Z,2.35
2022-10-06T19:15:20.392Z,2.13
2022-10-06T19:17:48.222Z,2.50
2022-10-06T19:20:15.180Z,2.30
2022-10-06T19:22:43.366Z,2.53
2022-10-06T19:25:10.330Z,2.70
2022-10-06T19:27:37.199Z,2.15
2022-10-06T19:30:05.241Z,2.38
2022-10-06T19:32:32.791Z,2.60
2022-10-06T19:35:00.261Z,2.85
2022-10-06T19:37:30.021Z,2.63
2022-10-06T19:39:56.981Z,2.40
2022-10-06T19:42:42.330Z,2.17
2022-10-06T19:45:11.766Z,2.60
2022-10-06T19:47:39.259Z,2.67
2022-10-06T19:50:12.530Z,2.33
2022-10-06T19:52:41.900Z,3.03
2022-10-06T19:55:08.802Z,3.03
2022-10-06T19:57:35.956Z,2.90
2022-10-06T20:00:05.633Z,2.85
2022-10-06T20:02:32.462Z,2.60
2022-10-06T20:04:59.248Z,2.65
2022-10-06T20:07:27.803Z,2.70
2022-10-06T20:09:55.535Z,2.75
2022-10-06T20:12:25.292Z,2.90
2022-10-06T20:14:53.682Z,2.77
2022-10-06T20:17:22.178Z,2.97
2022-10-06T20:19:50.249Z,2.78
2022-10-06T20:22:18.586Z,2.53
2022-10-06T20:24:45.368Z,2.65
2022-10-06T20:27:12.244Z,2.58
2022-10-06T20:29:39.114Z,2.88
2022-10-06T20:32:05.970Z,2.97
2022-10-06T20:34:33.203Z,2.70
2022-10-06T20:37:05.284Z,2.60
2022-10-06T20:39:52.725Z,2.83
2022-10-06T20:42:20.782Z,2.97
2022-10-06T20:44:48.225Z,2.65
2022-10-06T20:47:16.484Z,3.38
2022-10-06T20:49:43.892Z,3.03
2022-10-06T20:52:14.468Z,2.55
2022-10-06T20:54:41.542Z,2.95
2022-10-06T20:57:09.435Z,2.80
2022-10-06T20:59:37.422Z,2.38
2022-10-06T21:02:05.695Z,3.10
2022-10-06T21:04:34.490Z,2.50
2022-10-06T21:07:03.895Z,2.72
2022-10-06T21:09:31.119Z,2.90
2022-10-06T21:11:57.964Z,2.97
2022-10-06T21:14:25.059Z,2.83
2022-10-06T21:16:52.250Z,3.38
2022-10-06T21:19:20.212Z,3.38
2022-10-06T21:21:51.705Z,3.53
2022-10-06T21:24:19.233Z,3.30
2022-10-06T21:26:46.063Z,3.08
2022-10-06T21:29:15.302Z,3.03
2022-10-06T21:31:43.349Z,3.20
2022-10-06T21:34:10.610Z,3.38
2022-10-06T21:36:37.961Z,3.47
2022-10-06T21:39:06.786Z,3.10
2022-10-06T21:41:40.683Z,3.15
2022-10-06T21:44:08.552Z,3.38
2022-10-06T21:46:42.820Z,3.63
2022-10-06T21:49:12.443Z,3.53
2022-10-06T21:51:41.631Z,3.15
2022-10-06T21:54:11.974Z,3.55
2022-10-06T21:56:39.795Z,3.30
2022-10-06T21:59:07.800Z,3.70
2022-10-06T22:01:38.495Z,3.78
2022-10-06T22:04:06.241Z,3.70
2022-10-06T22:06:36.642Z,3.30
2022-10-06T22:09:08.225Z,3.25
2022-10-06T22:11:40.292Z,3.22
2022-10-06T22:14:11.667Z,2.40
2022-10-06T22:16:39.460Z,3.30
2022-10-06T22:19:10.584Z,3.00
2022-10-06T22:21:46.704Z,2.97
2022-10-06T22:24:17.574Z,3.28
2022-10-06T22:29:15.864Z,2.75
2022-10-06T22:31:45.779Z,2.97
2022-10-06T22:34:17.242Z,3.33
2022-10-06T22:36:44.288Z,3.80
2022-10-06T22:39:11.286Z,2.83
2022-10-06T22:41:38.555Z,3.00
2022-10-06T22:44:05.949Z,3.20
2022-10-06T22:46:35.988Z,2.97
2022-10-06T22:49:04.584Z,2.72
2022-10-06T22:51:31.439Z,2.70
2022-10-06T22:54:00.131Z,2.70
2022-10-06T22:56:31.296Z,2.70
2022-10-06T22:58:59.606Z,2.53
2022-10-06T23:01:28.507Z,2.85
2022-10-06T23:03:56.169Z,2.80
2022-10-06T23:06:24.440Z,2.78
2022-10-06T23:08:51.696Z,2.70
2022-10-06T23:11:21.699Z,2.38
2022-10-06T23:13:50.245Z,2.37
2022-10-06T23:16:19.208Z,2.85
2022-10-06T23:18:47.006Z,2.53
2022-10-06T23:21:23.888Z,2.50
2022-10-06T23:23:55.503Z,2.50
2022-10-06T23:26:23.813Z,2.42
2022-10-06T23:28:57.492Z,2.78
2022-10-06T23:31:25.183Z,3.20
2022-10-06T23:33:53.394Z,2.90
2022-10-06T23:36:20.218Z,2.88
2022-10-06T23:38:47.466Z,2.92
2022-10-06T23:41:14.545Z,2.30
2022-10-06T23:43:41.463Z,2.65
2022-10-06T23:46:08.824Z,2.38
2022-10-06T23:48:36.007Z,2.55
2022-10-06T23:51:07.069Z,2.58
2022-10-06T23:53:35.191Z,2.30
2022-10-06T23:56:02.674Z,2.10
2022-10-06T23:58:29.517Z,3.03
